sensor_id;sensor_type;location;lat;lon;timestamp;P1;durP1;ratioP1;P2;durP2;ratioP2
7545;SDS011;3814;51.454;12.616;2024-01-10T00:01:11;48.17;;;19.17;;
7545;SDS011;3814;51.454;12.616;2024-01-10T00:03:36;44.50;;;18.30;;
7545;SDS011;3814;51.454;12.616;2024-01-10T00:06:01;43.20;;;17.47;;
7545;SDS011;3814;51.454;12.616;2024-01-10T00:08:27;39.40;;;18.77;;
7545;SDS011;3814;51.454;12.616;2024-01-10T00:10:52;41.47;;;17.27;;
7545;SDS011;3814;51.454;12.616;2024-01-10T00:13:19;46.40;;;19.33;;
7545;SDS011;3814;51.454;12.616;2024-01-10T00:15:45;44.25;;;18.33;;
7545;SDS011;3814;51.454;12.616;2024-01-10T00:18:10;37.80;;;15.90;;
7545;SDS011;3814;51.454;12.616;2024-01-10T00:20:35;42.47;;;17.47;;
7545;SDS011;3814;51.454;12.616;2024-01-10T00:23:01;43.53;;;18.17;;
7545;SDS011;3814;51.454;12.616;2024-01-10T00:25:26;46.27;;;17.07;;
7545;SDS011;3814;51.454;12.616;2024-01-10T00:27:51;40.00;;;17.20;;
7545;SDS011;3814;51.454;12.616;2024-01-10T00:30:16;41.07;;;16.27;;
7545;SDS011;3814;51.454;12.616;2024-01-10T00:32:42;32.83;;;15.90;;
7545;SDS011;3814;51.454;12.616;2024-01-10T00:35:07;38.20;;;17.20;;
7545;SDS011;3814;51.454;12.616;2024-01-10T00:37:32;46.25;;;17.88;;
7545;SDS011;3814;51.454;12.616;2024-01-10T00:39:58;37.43;;;15.70;;
7545;SDS011;3814;51.454;12.616;2024-01-10T00:42:23;47.33;;;18.60;;
7545;SDS011;3814;51.454;12.616;2024-01-10T00:44:48;39.03;;;17.40;;
7545;SDS011;3814;51.454;12.616;2024-01-10T00:47:14;39.57;;;17.17;;
7545;SDS011;3814;51.454;12.616;2024-01-10T00:49:39;39.00;;;17.97;;
7545;SDS011;3814;51.454;12.616;2024-01-10T00:52:04;42.80;;;18.10;;
7545;SDS011;3814;51.454;12.616;2024-01-10T00:54:30;45.13;;;18.43;;
7545;SDS011;3814;51.454;12.616;2024-01-10T00:56:55;43.63;;;17.73;;
7545;SDS011;3814;51.454;12.616;2024-01-10T00:59:20;40.20;;;18.67;;
7545;SDS011;3814;51.454;12.616;2024-01-10T01:01:46;44.20;;;19.80;;
7545;SDS011;3814;51.454;12.616;2024-01-10T01:04:11;42.87;;;18.37;;
7545;SDS011;3814;51.454;12.616;2024-01-10T01:06:36;45.27;;;16.77;;
7545;SDS011;3814;51.454;12.616;2024-01-10T01:09:01;45.93;;;18.97;;
7545;SDS011;3814;51.454;12.616;2024-01-10T01:11:27;42.45;;;16.17;;
7545;SDS011;3814;51.454;12.616;2024-01-10T01:13:52;38.87;;;16.83;;
7545;SDS011;3814;51.454;12.616;2024-01-10T01:16:18;47.33;;;18.53;;
7545;SDS011;3814;51.454;12.616;2024-01-10T01:18:43;39.83;;;17.27;;
7545;SDS011;3814;51.454;12.616;2024-01-10T01:21:10;38.58;;;17.38;;
7545;SDS011;3814;51.454;12.616;2024-01-10T01:23:36;32.65;;;17.30;;
7545;SDS011;3814;51.454;12.616;2024-01-10T01:26:01;40.07;;;16.13;;
7545;SDS011;3814;51.454;12.616;2024-01-10T01:28:26;42.47;;;17.52;;
7545;SDS011;3814;51.454;12.616;2024-01-10T01:30:52;32.88;;;15.18;;
7545;SDS011;3814;51.454;12.616;2024-01-10T01:33:17;37.90;;;17.80;;
7545;SDS011;3814;51.454;12.616;2024-01-10T01:35:43;43.90;;;16.47;;
7545;SDS011;3814;51.454;12.616;2024-01-10T01:38:08;37.83;;;17.13;;
7545;SDS011;3814;51.454;12.616;2024-01-10T01:40:33;38.67;;;16.93;;
7545;SDS011;3814;51.454;12.616;2024-01-10T01:42:58;47.87;;;17.43;;
7545;SDS011;3814;51.454;12.616;2024-01-10T01:45:24;36.67;;;17.67;;
7545;SDS011;3814;51.454;12.616;2024-01-10T01:47:49;43.77;;;18.47;;
7545;SDS011;3814;51.454;12.616;2024-01-10T01:50:14;47.10;;;17.50;;
7545;SDS011;3814;51.454;12.616;2024-01-10T01:52:40;39.03;;;16.80;;
7545;SDS011;3814;51.454;12.616;2024-01-10T01:55:05;39.63;;;16.50;;
7545;SDS011;3814;51.454;12.616;2024-01-10T01:57:32;38.17;;;17.70;;
7545;SDS011;3814;51.454;12.616;2024-01-10T01:59:58;37.83;;;17.30;;
7545;SDS011;3814;51.454;12.616;2024-01-10T02:02:24;31.50;;;14.77;;
7545;SDS011;3814;51.454;12.616;2024-01-10T02:04:49;44.45;;;17.80;;
7545;SDS011;3814;51.454;12.616;2024-01-10T02:07:15;46.50;;;19.13;;
7545;SDS011;3814;51.454;12.616;2024-01-10T02:09:40;35.20;;;15.07;;
7545;SDS011;3814;51.454;12.616;2024-01-10T02:12:06;44.77;;;17.30;;
7545;SDS011;3814;51.454;12.616;2024-01-10T02:14:31;41.72;;;15.52;;
7545;SDS011;3814;51.454;12.616;2024-01-10T02:16:57;39.00;;;17.40;;
7545;SDS011;3814;51.454;12.616;2024-01-10T02:19:22;45.57;;;17.47;;
7545;SDS011;3814;51.454;12.616;2024-01-10T02:21:48;41.67;;;15.95;;
7545;SDS011;3814;51.454;12.616;2024-01-10T02:24:14;42.75;;;16.40;;
7545;SDS011;3814;51.454;12.616;2024-01-10T02:26:39;36.53;;;15.85;;
7545;SDS011;3814;51.454;12.616;2024-01-10T02:29:05;36.45;;;16.88;;
7545;SDS011;3814;51.454;12.616;2024-01-10T02:31:30;41.67;;;18.03;;
7545;SDS011;3814;51.454;12.616;2024-01-10T02:33:55;39.20;;;17.13;;
7545;SDS011;3814;51.454;12.616;2024-01-10T02:36:21;39.03;;;19.17;;
7545;SDS011;3814;51.454;12.616;2024-01-10T02:38:46;43.70;;;17.93;;
7545;SDS011;3814;51.454;12.616;2024-01-10T02:41:12;38.60;;;16.38;;
7545;SDS011;3814;51.454;12.616;2024-01-10T02:43:38;49.03;;;17.75;;
7545;SDS011;3814;51.454;12.616;2024-01-10T02:46:03;40.63;;;15.87;;
7545;SDS011;3814;51.454;12.616;2024-01-10T02:48:28;36.58;;;15.77;;
7545;SDS011;3814;51.454;12.616;2024-01-10T02:50:54;43.37;;;18.43;;
7545;SDS011;3814;51.454;12.616;2024-01-10T02:53:20;33.05;;;15.95;;
7545;SDS011;3814;51.454;12.616;2024-01-10T02:55:46;39.55;;;17.92;;
7545;SDS011;3814;51.454;12.616;2024-01-10T02:58:11;37.33;;;17.63;;
7545;SDS011;3814;51.454;12.616;2024-01-10T03:00:36;43.43;;;16.17;;
7545;SDS011;3814;51.454;12.616;2024-01-10T03:03:02;33.92;;;16.20;;
7545;SDS011;3814;51.454;12.616;2024-01-10T03:05:28;51.47;;;19.92;;
7545;SDS011;3814;51.454;12.616;2024-01-10T03:07:53;42.93;;;18.03;;
7545;SDS011;3814;51.454;12.616;2024-01-10T03:10:18;43.53;;;17.67;;
7545;SDS011;3814;51.454;12.616;2024-01-10T03:12:44;36.90;;;16.10;;
7545;SDS011;3814;51.454;12.616;2024-01-10T03:15:09;38.80;;;18.33;;
7545;SDS011;3814;51.454;12.616;2024-01-10T03:17:34;37.43;;;17.73;;
7545;SDS011;3814;51.454;12.616;2024-01-10T03:20:01;47.33;;;19.52;;
7545;SDS011;3814;51.454;12.616;2024-01-10T03:22:27;39.03;;;17.60;;
7545;SDS011;3814;51.454;12.616;2024-01-10T03:24:54;37.25;;;16.60;;
7545;SDS011;3814;51.454;12.616;2024-01-10T03:27:19;46.65;;;18.15;;
7545;SDS011;3814;51.454;12.616;2024-01-10T03:29:44;41.07;;;18.80;;
7545;SDS011;3814;51.454;12.616;2024-01-10T03:32:10;36.40;;;16.73;;
7545;SDS011;3814;51.454;12.616;2024-01-10T03:34:35;39.80;;;16.73;;
7545;SDS011;3814;51.454;12.616;2024-01-10T03:37:01;42.70;;;18.27;;
7545;SDS011;3814;51.454;12.616;2024-01-10T03:39:26;50.60;;;18.70;;
7545;SDS011;3814;51.454;12.616;2024-01-10T03:41:51;44.20;;;17.97;;
7545;SDS011;3814;51.454;12.616;2024-01-10T03:44:16;43.37;;;19.70;;
7545;SDS011;3814;51.454;12.616;2024-01-10T03:46:42;44.23;;;17.07;;
7545;SDS011;3814;51.454;12.616;2024-01-10T03:49:07;34.47;;;16.73;;
7545;SDS011;3814;51.454;12.616;2024-01-10T03:51:32;43.10;;;18.65;;
7545;SDS011;3814;51.454;12.616;2024-01-10T03:53:58;41.33;;;18.37;;
7545;SDS011;3814;51.454;12.616;2024-01-10T03:56:23;32.97;;;14.43;;
7545;SDS011;3814;51.454;12.616;2024-01-10T03:58:48;34.10;;;16.20;;
7545;SDS011;3814;51.454;12.616;2024-01-10T04:01:14;45.80;;;18.57;;
7545;SDS011;3814;51.454;12.616;2024-01-10T04:03:39;41.33;;;19.07;;
7545;SDS011;3814;51.454;12.616;2024-01-10T04:06:07;40.10;;;17.15;;
7545;SDS011;3814;51.454;12.616;2024-01-10T04:08:32;40.40;;;19.42;;
7545;SDS011;3814;51.454;12.616;2024-01-10T04:10:58;39.87;;;20.03;;
7545;SDS011;3814;51.454;12.616;2024-01-10T04:13:23;41.35;;;17.67;;
7545;SDS011;3814;51.454;12.616;2024-01-10T04:15:49;49.83;;;19.00;;
7545;SDS011;3814;51.454;12.616;2024-01-10T04:18:14;40.87;;;17.70;;
7545;SDS011;3814;51.454;12.616;2024-01-10T04:20:40;41.67;;;19.02;;
7545;SDS011;3814;51.454;12.616;2024-01-10T04:23:05;33.00;;;14.63;;
7545;SDS011;3814;51.454;12.616;2024-01-10T04:25:30;33.37;;;14.90;;
7545;SDS011;3814;51.454;12.616;2024-01-10T04:27:56;37.37;;;15.90;;
7545;SDS011;3814;51.454;12.616;2024-01-10T04:30:22;39.33;;;18.50;;
7545;SDS011;3814;51.454;12.616;2024-01-10T04:32:47;44.13;;;16.85;;
7545;SDS011;3814;51.454;12.616;2024-01-10T04:35:13;44.47;;;18.90;;
7545;SDS011;3814;51.454;12.616;2024-01-10T04:37:38;35.93;;;15.63;;
7545;SDS011;3814;51.454;12.616;2024-01-10T04:40:04;36.65;;;16.50;;
7545;SDS011;3814;51.454;12.616;2024-01-10T04:42:30;40.88;;;18.83;;
7545;SDS011;3814;51.454;12.616;2024-01-10T04:44:55;39.00;;;17.08;;
7545;SDS011;3814;51.454;12.616;2024-01-10T04:47:21;38.23;;;17.57;;
7545;SDS011;3814;51.454;12.616;2024-01-10T04:49:46;49.20;;;18.67;;
7545;SDS011;3814;51.454;12.616;2024-01-10T04:52:12;42.03;;;17.45;;
7545;SDS011;3814;51.454;12.616;2024-01-10T04:54:37;38.38;;;16.48;;
7545;SDS011;3814;51.454;12.616;2024-01-10T04:57:03;36.10;;;16.55;;
7545;SDS011;3814;51.454;12.616;2024-01-10T04:59:28;37.55;;;15.45;;
7545;SDS011;3814;51.454;12.616;2024-01-10T05:01:54;39.30;;;15.37;;
7545;SDS011;3814;51.454;12.616;2024-01-10T05:04:19;41.72;;;16.17;;
7545;SDS011;3814;51.454;12.616;2024-01-10T05:06:44;37.60;;;16.33;;
7545;SDS011;3814;51.454;12.616;2024-01-10T05:09:10;44.80;;;18.17;;
7545;SDS011;3814;51.454;12.616;2024-01-10T05:11:35;41.43;;;18.60;;
7545;SDS011;3814;51.454;12.616;2024-01-10T05:14:01;34.83;;;15.07;;
7545;SDS011;3814;51.454;12.616;2024-01-10T05:16:27;45.30;;;19.25;;
7545;SDS011;3814;51.454;12.616;2024-01-10T05:18:53;34.03;;;16.17;;
7545;SDS011;3814;51.454;12.616;2024-01-10T05:21:18;43.27;;;17.30;;
7545;SDS011;3814;51.454;12.616;2024-01-10T05:23:43;39.37;;;16.57;;
7545;SDS011;3814;51.454;12.616;2024-01-10T05:26:09;44.47;;;18.43;;
7545;SDS011;3814;51.454;12.616;2024-01-10T05:28:34;40.45;;;17.35;;
7545;SDS011;3814;51.454;12.616;2024-01-10T05:31:00;46.60;;;16.73;;
7545;SDS011;3814;51.454;12.616;2024-01-10T05:33:25;40.33;;;16.92;;
7545;SDS011;3814;51.454;12.616;2024-01-10T05:35:51;41.13;;;17.90;;
7545;SDS011;3814;51.454;12.616;2024-01-10T05:38:16;39.40;;;18.33;;
7545;SDS011;3814;51.454;12.616;2024-01-10T05:40:41;33.80;;;15.60;;
7545;SDS011;3814;51.454;12.616;2024-01-10T05:43:07;36.77;;;15.57;;
7545;SDS011;3814;51.454;12.616;2024-01-10T05:45:32;41.23;;;17.50;;
7545;SDS011;3814;51.454;12.616;2024-01-10T05:47:58;33.58;;;16.42;;
7545;SDS011;3814;51.454;12.616;2024-01-10T05:50:23;40.23;;;16.93;;
7545;SDS011;3814;51.454;12.616;2024-01-10T05:52:48;40.77;;;16.50;;
7545;SDS011;3814;51.454;12.616;2024-01-10T05:55:14;47.17;;;18.60;;
7545;SDS011;3814;51.454;12.616;2024-01-10T05:57:39;44.17;;;18.40;;
7545;SDS011;3814;51.454;12.616;2024-01-10T06:00:05;36.47;;;17.13;;
7545;SDS011;3814;51.454;12.616;2024-01-10T06:02:37;47.50;;;17.50;;
7545;SDS011;3814;51.454;12.616;2024-01-10T06:07:31;45.70;;;17.05;;
7545;SDS011;3814;51.454;12.616;2024-01-10T06:09:57;41.50;;;18.27;;
7545;SDS011;3814;51.454;12.616;2024-01-10T06:12:22;44.87;;;17.50;;
7545;SDS011;3814;51.454;12.616;2024-01-10T06:14:47;34.67;;;16.73;;
7545;SDS011;3814;51.454;12.616;2024-01-10T06:17:13;43.83;;;18.10;;
7545;SDS011;3814;51.454;12.616;2024-01-10T06:19:38;40.53;;;15.77;;
7545;SDS011;3814;51.454;12.616;2024-01-10T06:22:04;40.50;;;16.88;;
7545;SDS011;3814;51.454;12.616;2024-01-10T06:24:29;37.23;;;16.20;;
7545;SDS011;3814;51.454;12.616;2024-01-10T06:26:55;49.83;;;19.67;;
7545;SDS011;3814;51.454;12.616;2024-01-10T06:29:20;44.27;;;17.50;;
7545;SDS011;3814;51.454;12.616;2024-01-10T06:31:45;43.08;;;17.08;;
7545;SDS011;3814;51.454;12.616;2024-01-10T06:34:11;38.88;;;19.67;;
7545;SDS011;3814;51.454;12.616;2024-01-10T06:36:37;33.60;;;14.53;;
7545;SDS011;3814;51.454;12.616;2024-01-10T06:39:03;36.50;;;16.23;;
7545;SDS011;3814;51.454;12.616;2024-01-10T06:41:28;33.20;;;16.57;;
7545;SDS011;3814;51.454;12.616;2024-01-10T06:43:54;37.78;;;17.70;;
7545;SDS011;3814;51.454;12.616;2024-01-10T06:46:20;38.80;;;17.20;;
7545;SDS011;3814;51.454;12.616;2024-01-10T06:48:46;44.03;;;17.58;;
7545;SDS011;3814;51.454;12.616;2024-01-10T06:51:14;38.78;;;17.73;;
7545;SDS011;3814;51.454;12.616;2024-01-10T06:53:40;42.28;;;18.80;;
7545;SDS011;3814;51.454;12.616;2024-01-10T06:56:06;40.70;;;18.10;;
7545;SDS011;3814;51.454;12.616;2024-01-10T06:58:31;35.50;;;16.92;;
7545;SDS011;3814;51.454;12.616;2024-01-10T07:00:57;38.75;;;16.60;;
7545;SDS011;3814;51.454;12.616;2024-01-10T07:03:25;32.20;;;15.30;;
7545;SDS011;3814;51.454;12.616;2024-01-10T07:05:50;41.15;;;16.05;;
7545;SDS011;3814;51.454;12.616;2024-01-10T07:08:16;44.20;;;17.57;;
7545;SDS011;3814;51.454;12.616;2024-01-10T07:10:41;36.17;;;16.33;;
7545;SDS011;3814;51.454;12.616;2024-01-10T07:13:07;41.72;;;16.95;;
7545;SDS011;3814;51.454;12.616;2024-01-10T07:15:32;35.13;;;15.90;;
7545;SDS011;3814;51.454;12.616;2024-01-10T07:17:57;46.03;;;17.83;;
7545;SDS011;3814;51.454;12.616;2024-01-10T07:20:23;54.07;;;20.37;;
7545;SDS011;3814;51.454;12.616;2024-01-10T07:22:49;44.25;;;18.15;;
7545;SDS011;3814;51.454;12.616;2024-01-10T07:25:14;42.53;;;19.13;;
7545;SDS011;3814;51.454;12.616;2024-01-10T07:27:40;41.70;;;17.30;;
7545;SDS011;3814;51.454;12.616;2024-01-10T07:30:06;41.47;;;17.13;;
7545;SDS011;3814;51.454;12.616;2024-01-10T07:32:41;39.47;;;16.33;;
7545;SDS011;3814;51.454;12.616;2024-01-10T07:35:07;42.40;;;17.30;;
7545;SDS011;3814;51.454;12.616;2024-01-10T07:37:36;40.67;;;16.15;;
7545;SDS011;3814;51.454;12.616;2024-01-10T07:40:05;39.45;;;17.70;;
7545;SDS011;3814;51.454;12.616;2024-01-10T07:42:34;45.13;;;17.65;;
7545;SDS011;3814;51.454;12.616;2024-01-10T07:45:00;34.10;;;15.52;;
7545;SDS011;3814;51.454;12.616;2024-01-10T07:47:29;44.22;;;20.92;;
7545;SDS011;3814;51.454;12.616;2024-01-10T07:49:54;39.67;;;18.10;;
7545;SDS011;3814;51.454;12.616;2024-01-10T07:52:20;42.67;;;19.23;;
7545;SDS011;3814;51.454;12.616;2024-01-10T07:54:45;36.43;;;16.77;;
7545;SDS011;3814;51.454;12.616;2024-01-10T07:57:10;35.57;;;17.93;;
7545;SDS011;3814;51.454;12.616;2024-01-10T07:59:36;43.22;;;17.83;;
7545;SDS011;3814;51.454;12.616;2024-01-10T08:02:01;43.30;;;19.03;;
7545;SDS011;3814;51.454;12.616;2024-01-10T08:04:27;37.13;;;17.50;;
7545;SDS011;3814;51.454;12.616;2024-01-10T08:06:52;36.17;;;17.42;;
7545;SDS011;3814;51.454;12.616;2024-01-10T08:09:18;45.38;;;18.80;;
7545;SDS011;3814;51.454;12.616;2024-01-10T08:11:46;40.35;;;18.02;;
7545;SDS011;3814;51.454;12.616;2024-01-10T08:14:13;38.58;;;17.40;;
7545;SDS011;3814;51.454;12.616;2024-01-10T08:16:39;39.55;;;17.48;;
7545;SDS011;3814;51.454;12.616;2024-01-10T08:19:04;37.27;;;16.77;;
7545;SDS011;3814;51.454;12.616;2024-01-10T08:21:29;43.87;;;17.37;;
7545;SDS011;3814;51.454;12.616;2024-01-10T08:23:55;40.47;;;18.08;;
7545;SDS011;3814;51.454;12.616;2024-01-10T08:26:20;45.60;;;17.05;;
7545;SDS011;3814;51.454;12.616;2024-01-10T08:28:45;38.03;;;17.63;;
7545;SDS011;3814;51.454;12.616;2024-01-10T08:31:11;46.80;;;18.27;;
7545;SDS011;3814;51.454;12.616;2024-01-10T08:33:37;38.75;;;15.32;;
7545;SDS011;3814;51.454;12.616;2024-01-10T08:36:04;43.00;;;16.33;;
7545;SDS011;3814;51.454;12.616;2024-01-10T08:38:29;47.67;;;18.80;;
7545;SDS011;3814;51.454;12.616;2024-01-10T08:40:55;40.88;;;18.00;;
7545;SDS011;3814;51.454;12.616;2024-01-10T08:43:21;48.60;;;19.60;;
7545;SDS011;3814;51.454;12.616;2024-01-10T08:45:46;46.07;;;19.07;;
7545;SDS011;3814;51.454;12.616;2024-01-10T08:48:11;51.47;;;21.40;;
7545;SDS011;3814;51.454;12.616;2024-01-10T08:50:38;45.47;;;19.17;;
7545;SDS011;3814;51.454;12.616;2024-01-10T08:53:04;48.47;;;19.92;;
7545;SDS011;3814;51.454;12.616;2024-01-10T08:55:30;49.70;;;20.92;;
7545;SDS011;3814;51.454;12.616;2024-01-10T08:57:59;43.13;;;19.02;;
7545;SDS011;3814;51.454;12.616;2024-01-10T09:00:24;52.22;;;19.88;;
7545;SDS011;3814;51.454;12.616;2024-01-10T09:02:49;43.77;;;18.57;;
7545;SDS011;3814;51.454;12.616;2024-01-10T09:05:15;48.83;;;19.58;;
7545;SDS011;3814;51.454;12.616;2024-01-10T09:07:40;41.60;;;18.55;;
7545;SDS011;3814;51.454;12.616;2024-01-10T09:10:07;47.30;;;18.85;;
7545;SDS011;3814;51.454;12.616;2024-01-10T09:12:32;46.58;;;18.48;;
7545;SDS011;3814;51.454;12.616;2024-01-10T09:14:58;55.33;;;20.60;;
7545;SDS011;3814;51.454;12.616;2024-01-10T09:17:23;36.23;;;17.93;;
7545;SDS011;3814;51.454;12.616;2024-01-10T09:19:48;48.60;;;19.60;;
7545;SDS011;3814;51.454;12.616;2024-01-10T09:22:14;46.70;;;19.43;;
7545;SDS011;3814;51.454;12.616;2024-01-10T09:24:39;41.93;;;18.10;;
7545;SDS011;3814;51.454;12.616;2024-01-10T09:27:04;44.43;;;17.60;;
7545;SDS011;3814;51.454;12.616;2024-01-10T09:29:30;50.07;;;21.30;;
7545;SDS011;3814;51.454;12.616;2024-01-10T09:31:56;48.92;;;19.70;;
7545;SDS011;3814;51.454;12.616;2024-01-10T09:34:21;48.20;;;21.05;;
7545;SDS011;3814;51.454;12.616;2024-01-10T09:36:47;50.17;;;21.67;;
7545;SDS011;3814;51.454;12.616;2024-01-10T09:39:13;54.40;;;20.73;;
7545;SDS011;3814;51.454;12.616;2024-01-10T09:41:40;48.03;;;21.13;;
7545;SDS011;3814;51.454;12.616;2024-01-10T09:44:13;43.53;;;19.85;;
7545;SDS011;3814;51.454;12.616;2024-01-10T09:46:38;44.88;;;20.23;;
7545;SDS011;3814;51.454;12.616;2024-01-10T09:49:06;53.70;;;22.25;;
7545;SDS011;3814;51.454;12.616;2024-01-10T09:51:32;45.92;;;20.08;;
7545;SDS011;3814;51.454;12.616;2024-01-10T09:53:58;49.53;;;21.17;;
7545;SDS011;3814;51.454;12.616;2024-01-10T09:56:27;46.05;;;20.48;;
7545;SDS011;3814;51.454;12.616;2024-01-10T09:58:52;47.03;;;19.93;;
7545;SDS011;3814;51.454;12.616;2024-01-10T10:01:18;47.47;;;19.75;;
7545;SDS011;3814;51.454;12.616;2024-01-10T10:03:44;50.10;;;20.45;;
7545;SDS011;3814;51.454;12.616;2024-01-10T10:06:10;41.63;;;18.23;;
7545;SDS011;3814;51.454;12.616;2024-01-10T10:08:35;49.43;;;20.47;;
7545;SDS011;3814;51.454;12.616;2024-01-10T10:11:02;43.20;;;18.67;;
7545;SDS011;3814;51.454;12.616;2024-01-10T10:13:28;39.60;;;18.33;;
7545;SDS011;3814;51.454;12.616;2024-01-10T10:16:00;46.25;;;19.88;;
7545;SDS011;3814;51.454;12.616;2024-01-10T10:18:27;42.88;;;20.60;;
7545;SDS011;3814;51.454;12.616;2024-01-10T10:23:34;43.63;;;21.42;;
7545;SDS011;3814;51.454;12.616;2024-01-10T10:26:08;50.42;;;21.15;;
7545;SDS011;3814;51.454;12.616;2024-01-10T10:28:35;41.30;;;18.35;;
7545;SDS011;3814;51.454;12.616;2024-01-10T10:31:00;52.10;;;21.00;;
7545;SDS011;3814;51.454;12.616;2024-01-10T10:33:26;49.88;;;20.42;;
7545;SDS011;3814;51.454;12.616;2024-01-10T10:35:51;40.63;;;18.77;;
7545;SDS011;3814;51.454;12.616;2024-01-10T10:38:17;49.10;;;20.10;;
7545;SDS011;3814;51.454;12.616;2024-01-10T10:40:42;40.43;;;19.00;;
7545;SDS011;3814;51.454;12.616;2024-01-10T10:43:08;44.55;;;19.65;;
7545;SDS011;3814;51.454;12.616;2024-01-10T10:45:38;41.58;;;20.20;;
7545;SDS011;3814;51.454;12.616;2024-01-10T10:48:04;42.25;;;19.83;;
7545;SDS011;3814;51.454;12.616;2024-01-10T10:50:33;44.45;;;21.55;;
7545;SDS011;3814;51.454;12.616;2024-01-10T10:53:00;45.53;;;21.13;;
7545;SDS011;3814;51.454;12.616;2024-01-10T10:55:28;48.30;;;22.08;;
7545;SDS011;3814;51.454;12.616;2024-01-10T10:57:54;48.67;;;21.60;;
7545;SDS011;3814;51.454;12.616;2024-01-10T11:00:21;47.83;;;21.40;;
7545;SDS011;3814;51.454;12.616;2024-01-10T11:02:51;44.97;;;20.25;;
7545;SDS011;3814;51.454;12.616;2024-01-10T11:05:18;49.97;;;20.15;;
7545;SDS011;3814;51.454;12.616;2024-01-10T11:07:44;42.65;;;20.67;;
7545;SDS011;3814;51.454;12.616;2024-01-10T11:10:11;49.53;;;21.75;;
7545;SDS011;3814;51.454;12.616;2024-01-10T11:12:53;47.30;;;21.02;;
7545;SDS011;3814;51.454;12.616;2024-01-10T11:15:56;44.55;;;18.45;;
7545;SDS011;3814;51.454;12.616;2024-01-10T11:18:47;41.95;;;19.90;;
7545;SDS011;3814;51.454;12.616;2024-01-10T11:21:24;50.03;;;19.30;;
7545;SDS011;3814;51.454;12.616;2024-01-10T11:23:57;42.60;;;20.38;;
7545;SDS011;3814;51.454;12.616;2024-01-10T11:26:24;51.13;;;20.30;;
7545;SDS011;3814;51.454;12.616;2024-01-10T11:28:50;42.75;;;19.50;;
7545;SDS011;3814;51.454;12.616;2024-01-10T11:31:15;52.08;;;21.02;;
7545;SDS011;3814;51.454;12.616;2024-01-10T11:33:40;48.10;;;19.33;;
7545;SDS011;3814;51.454;12.616;2024-01-10T11:36:17;49.00;;;20.67;;
7545;SDS011;3814;51.454;12.616;2024-01-10T11:41:27;42.90;;;20.20;;
7545;SDS011;3814;51.454;12.616;2024-01-10T11:49:12;48.08;;;21.50;;
7545;SDS011;3814;51.454;12.616;2024-01-10T11:51:52;43.30;;;19.83;;
7545;SDS011;3814;51.454;12.616;2024-01-10T11:59:45;47.63;;;20.58;;
7545;SDS011;3814;51.454;12.616;2024-01-10T12:02:11;52.55;;;22.83;;
7545;SDS011;3814;51.454;12.616;2024-01-10T12:04:37;52.10;;;21.55;;
7545;SDS011;3814;51.454;12.616;2024-01-10T12:07:03;49.53;;;21.05;;
7545;SDS011;3814;51.454;12.616;2024-01-10T12:09:29;50.60;;;20.98;;
7545;SDS011;3814;51.454;12.616;2024-01-10T12:11:55;42.92;;;19.65;;
7545;SDS011;3814;51.454;12.616;2024-01-10T12:14:20;48.20;;;21.27;;
7545;SDS011;3814;51.454;12.616;2024-01-10T12:16:46;47.33;;;21.93;;
7545;SDS011;3814;51.454;12.616;2024-01-10T12:19:12;47.97;;;21.55;;
7545;SDS011;3814;51.454;12.616;2024-01-10T12:21:37;50.47;;;22.37;;
7545;SDS011;3814;51.454;12.616;2024-01-10T12:24:05;50.33;;;20.93;;
7545;SDS011;3814;51.454;12.616;2024-01-10T12:26:31;48.38;;;22.15;;
7545;SDS011;3814;51.454;12.616;2024-01-10T12:28:56;49.47;;;19.97;;
7545;SDS011;3814;51.454;12.616;2024-01-10T12:31:24;51.28;;;21.45;;
7545;SDS011;3814;51.454;12.616;2024-01-10T12:33:51;49.78;;;21.67;;
7545;SDS011;3814;51.454;12.616;2024-01-10T12:36:17;45.77;;;19.87;;
7545;SDS011;3814;51.454;12.616;2024-01-10T12:38:43;48.50;;;20.30;;
7545;SDS011;3814;51.454;12.616;2024-01-10T12:41:12;48.13;;;19.45;;
7545;SDS011;3814;51.454;12.616;2024-01-10T12:43:39;44.70;;;19.80;;
7545;SDS011;3814;51.454;12.616;2024-01-10T12:46:08;46.17;;;20.95;;
7545;SDS011;3814;51.454;12.616;2024-01-10T12:48:38;44.30;;;19.13;;
7545;SDS011;3814;51.454;12.616;2024-01-10T12:51:06;47.13;;;20.90;;
7545;SDS011;3814;51.454;12.616;2024-01-10T12:53:42;48.10;;;20.50;;
7545;SDS011;3814;51.454;12.616;2024-01-10T12:56:09;45.00;;;19.30;;
7545;SDS011;3814;51.454;12.616;2024-01-10T12:58:39;43.35;;;20.50;;
7545;SDS011;3814;51.454;12.616;2024-01-10T13:01:05;46.10;;;22.00;;
7545;SDS011;3814;51.454;12.616;2024-01-10T13:03:30;44.67;;;19.92;;
7545;SDS011;3814;51.454;12.616;2024-01-10T13:05:55;51.63;;;20.83;;
7545;SDS011;3814;51.454;12.616;2024-01-10T13:08:21;49.45;;;22.08;;
7545;SDS011;3814;51.454;12.616;2024-01-10T13:10:47;51.22;;;21.67;;
7545;SDS011;3814;51.454;12.616;2024-01-10T13:13:12;46.78;;;20.67;;
7545;SDS011;3814;51.454;12.616;2024-01-10T13:15:39;48.78;;;22.17;;
7545;SDS011;3814;51.454;12.616;2024-01-10T13:18:04;40.60;;;20.00;;
7545;SDS011;3814;51.454;12.616;2024-01-10T13:20:29;41.58;;;18.60;;
7545;SDS011;3814;51.454;12.616;2024-01-10T13:22:55;47.70;;;20.98;;
7545;SDS011;3814;51.454;12.616;2024-01-10T13:25:20;44.17;;;18.47;;
7545;SDS011;3814;51.454;12.616;2024-01-10T13:27:49;46.30;;;20.08;;
7545;SDS011;3814;51.454;12.616;2024-01-10T13:30:15;49.20;;;20.80;;
7545;SDS011;3814;51.454;12.616;2024-01-10T13:32:41;45.63;;;20.95;;
7545;SDS011;3814;51.454;12.616;2024-01-10T13:35:06;49.80;;;20.93;;
7545;SDS011;3814;51.454;12.616;2024-01-10T13:37:32;41.13;;;21.13;;
7545;SDS011;3814;51.454;12.616;2024-01-10T13:39:58;45.53;;;19.98;;
7545;SDS011;3814;51.454;12.616;2024-01-10T13:42:24;45.33;;;21.40;;
7545;SDS011;3814;51.454;12.616;2024-01-10T13:44:50;44.23;;;19.83;;
7545;SDS011;3814;51.454;12.616;2024-01-10T13:47:19;42.55;;;18.70;;
7545;SDS011;3814;51.454;12.616;2024-01-10T13:49:46;48.92;;;21.48;;
7545;SDS011;3814;51.454;12.616;2024-01-10T13:52:12;54.05;;;21.65;;
7545;SDS011;3814;51.454;12.616;2024-01-10T13:54:37;46.93;;;21.83;;
7545;SDS011;3814;51.454;12.616;2024-01-10T13:57:02;49.30;;;21.85;;
7545;SDS011;3814;51.454;12.616;2024-01-10T13:59:28;46.72;;;19.83;;
7545;SDS011;3814;51.454;12.616;2024-01-10T14:01:53;51.08;;;20.02;;
7545;SDS011;3814;51.454;12.616;2024-01-10T14:04:19;42.73;;;17.97;;
7545;SDS011;3814;51.454;12.616;2024-01-10T14:06:44;46.40;;;21.63;;
7545;SDS011;3814;51.454;12.616;2024-01-10T14:09:09;44.43;;;20.63;;
7545;SDS011;3814;51.454;12.616;2024-01-10T14:11:35;46.70;;;20.13;;
7545;SDS011;3814;51.454;12.616;2024-01-10T14:14:00;43.83;;;20.23;;
7545;SDS011;3814;51.454;12.616;2024-01-10T14:16:26;46.30;;;19.52;;
7545;SDS011;3814;51.454;12.616;2024-01-10T14:18:52;47.72;;;20.30;;
7545;SDS011;3814;51.454;12.616;2024-01-10T14:21:20;49.08;;;23.63;;
7545;SDS011;3814;51.454;12.616;2024-01-10T14:23:46;47.90;;;21.25;;
7545;SDS011;3814;51.454;12.616;2024-01-10T14:26:12;49.95;;;21.35;;
7545;SDS011;3814;51.454;12.616;2024-01-10T14:28:37;46.45;;;20.52;;
7545;SDS011;3814;51.454;12.616;2024-01-10T14:31:03;47.97;;;21.43;;
7545;SDS011;3814;51.454;12.616;2024-01-10T14:33:29;52.25;;;22.30;;
7545;SDS011;3814;51.454;12.616;2024-01-10T14:35:54;48.80;;;21.57;;
7545;SDS011;3814;51.454;12.616;2024-01-10T14:38:20;51.15;;;20.98;;
7545;SDS011;3814;51.454;12.616;2024-01-10T14:40:45;59.47;;;25.70;;
7545;SDS011;3814;51.454;12.616;2024-01-10T14:43:10;45.17;;;22.20;;
7545;SDS011;3814;51.454;12.616;2024-01-10T14:45:35;45.27;;;22.70;;